sensor_id;sensor_type;location;lat;lon;timestamp;P1;durP1;ratioP1;P2;durP2;ratioP2
51244;SDS011;37840;47.562;18.738;2023-02-28T00:01:21;11.40;;;8.13;;
51244;SDS011;37840;47.562;18.738;2023-02-28T00:03:47;10.07;;;8.07;;
51244;SDS011;37840;47.562;18.738;2023-02-28T00:06:14;11.63;;;8.55;;
51244;SDS011;37840;47.562;18.738;2023-02-28T00:08:40;10.60;;;8.15;;
51244;SDS011;37840;47.562;18.738;2023-02-28T00:11:07;11.02;;;7.90;;
51244;SDS011;37840;47.562;18.738;2023-02-28T00:13:35;12.50;;;9.10;;
51244;SDS011;37840;47.562;18.738;2023-02-28T00:16:06;14.75;;;9.18;;
51244;SDS011;37840;47.562;18.738;2023-02-28T00:18:35;12.45;;;9.38;;
51244;SDS011;37840;47.562;18.738;2023-02-28T00:21:01;13.85;;;9.52;;
51244;SDS011;37840;47.562;18.738;2023-02-28T00:23:27;13.88;;;9.75;;
51244;SDS011;37840;47.562;18.738;2023-02-28T00:25:53;12.60;;;9.23;;
51244;SDS011;37840;47.562;18.738;2023-02-28T00:28:20;11.48;;;8.63;;
51244;SDS011;37840;47.562;18.738;2023-02-28T00:30:46;15.50;;;8.95;;
51244;SDS011;37840;47.562;18.738;2023-02-28T00:33:12;12.32;;;9.82;;
51244;SDS011;37840;47.562;18.738;2023-02-28T00:35:39;12.32;;;9.25;;
51244;SDS011;37840;47.562;18.738;2023-02-28T00:38:05;11.18;;;8.77;;
51244;SDS011;37840;47.562;18.738;2023-02-28T00:40:31;12.05;;;8.82;;
51244;SDS011;37840;47.562;18.738;2023-02-28T00:42:57;11.85;;;8.65;;
51244;SDS011;37840;47.562;18.738;2023-02-28T00:45:23;11.40;;;9.80;;
51244;SDS011;37840;47.562;18.738;2023-02-28T00:47:49;14.25;;;10.15;;
51244;SDS011;37840;47.562;18.738;2023-02-28T00:50:19;13.27;;;9.77;;
51244;SDS011;37840;47.562;18.738;2023-02-28T00:52:46;12.27;;;8.80;;
51244;SDS011;37840;47.562;18.738;2023-02-28T00:55:12;12.70;;;9.82;;
51244;SDS011;37840;47.562;18.738;2023-02-28T00:57:38;13.77;;;9.13;;
51244;SDS011;37840;47.562;18.738;2023-02-28T01:00:05;12.43;;;9.38;;
51244;SDS011;37840;47.562;18.738;2023-02-28T01:02:32;12.35;;;9.43;;
51244;SDS011;37840;47.562;18.738;2023-02-28T01:04:59;12.57;;;10.20;;
51244;SDS011;37840;47.562;18.738;2023-02-28T01:07:24;12.63;;;9.50;;
51244;SDS011;37840;47.562;18.738;2023-02-28T01:09:50;13.07;;;10.32;;
51244;SDS011;37840;47.562;18.738;2023-02-28T01:12:16;11.35;;;9.23;;
51244;SDS011;37840;47.562;18.738;2023-02-28T01:14:42;13.30;;;9.30;;
51244;SDS011;37840;47.562;18.738;2023-02-28T01:17:08;12.88;;;9.38;;
51244;SDS011;37840;47.562;18.738;2023-02-28T01:19:34;12.05;;;9.07;;
51244;SDS011;37840;47.562;18.738;2023-02-28T01:22:01;10.48;;;9.25;;
51244;SDS011;37840;47.562;18.738;2023-02-28T01:24:28;12.20;;;9.30;;
51244;SDS011;37840;47.562;18.738;2023-02-28T01:26:54;12.27;;;9.45;;
51244;SDS011;37840;47.562;18.738;2023-02-28T01:29:20;12.05;;;9.10;;
51244;SDS011;37840;47.562;18.738;2023-02-28T01:31:46;11.32;;;9.18;;
51244;SDS011;37840;47.562;18.738;2023-02-28T01:34:12;14.57;;;10.32;;
51244;SDS011;37840;47.562;18.738;2023-02-28T01:36:38;11.65;;;9.10;;
51244;SDS011;37840;47.562;18.738;2023-02-28T01:39:04;11.32;;;8.98;;
51244;SDS011;37840;47.562;18.738;2023-02-28T01:41:31;13.62;;;9.13;;
51244;SDS011;37840;47.562;18.738;2023-02-28T01:46:29;11.40;;;9.52;;
51244;SDS011;37840;47.562;18.738;2023-02-28T01:49:20;15.02;;;10.07;;
51244;SDS011;37840;47.562;18.738;2023-02-28T01:51:50;11.90;;;9.18;;
51244;SDS011;37840;47.562;18.738;2023-02-28T01:54:19;13.75;;;10.27;;
51244;SDS011;37840;47.562;18.738;2023-02-28T01:56:53;14.93;;;9.57;;
51244;SDS011;37840;47.562;18.738;2023-02-28T01:59:33;13.90;;;10.10;;
51244;SDS011;37840;47.562;18.738;2023-02-28T02:02:03;13.82;;;10.10;;
51244;SDS011;37840;47.562;18.738;2023-02-28T02:04:35;12.50;;;9.30;;
51244;SDS011;37840;47.562;18.738;2023-02-28T02:07:07;12.27;;;9.80;;
51244;SDS011;37840;47.562;18.738;2023-02-28T02:09:34;12.63;;;9.35;;
51244;SDS011;37840;47.562;18.738;2023-02-28T02:12:01;11.20;;;9.00;;
51244;SDS011;37840;47.562;18.738;2023-02-28T02:15:00;10.63;;;8.20;;
51244;SDS011;37840;47.562;18.738;2023-02-28T02:17:44;12.30;;;9.68;;
51244;SDS011;37840;47.562;18.738;2023-02-28T02:20:38;12.93;;;9.60;;
51244;SDS011;37840;47.562;18.738;2023-02-28T02:23:19;12.98;;;9.30;;
51244;SDS011;37840;47.562;18.738;2023-02-28T02:37:14;13.25;;;9.65;;
51244;SDS011;37840;47.562;18.738;2023-02-28T02:40:03;12.88;;;9.60;;
51244;SDS011;37840;47.562;18.738;2023-02-28T02:42:47;11.90;;;9.63;;
51244;SDS011;37840;47.562;18.738;2023-02-28T02:45:22;13.00;;;9.07;;
51244;SDS011;37840;47.562;18.738;2023-02-28T02:47:53;13.25;;;9.10;;
51244;SDS011;37840;47.562;18.738;2023-02-28T02:50:41;9.85;;;8.38;;
51244;SDS011;37840;47.562;18.738;2023-02-28T02:53:10;11.82;;;8.45;;
51244;SDS011;37840;47.562;18.738;2023-02-28T02:55:40;12.45;;;8.85;;
51244;SDS011;37840;47.562;18.738;2023-02-28T02:58:11;10.88;;;7.70;;
51244;SDS011;37840;47.562;18.738;2023-02-28T03:00:52;8.93;;;7.78;;
51244;SDS011;37840;47.562;18.738;2023-02-28T03:03:22;12.25;;;8.10;;
51244;SDS011;37840;47.562;18.738;2023-02-28T03:05:56;11.18;;;7.18;;
51244;SDS011;37840;47.562;18.738;2023-02-28T03:08:23;10.65;;;7.87;;
51244;SDS011;37840;47.562;18.738;2023-02-28T03:10:50;11.52;;;7.72;;
51244;SDS011;37840;47.562;18.738;2023-02-28T03:13:30;12.77;;;9.43;;
51244;SDS011;37840;47.562;18.738;2023-02-28T03:16:23;12.68;;;8.15;;
51244;SDS011;37840;47.562;18.738;2023-02-28T03:27:07;10.45;;;8.05;;
51244;SDS011;37840;47.562;18.738;2023-02-28T03:29:47;13.35;;;8.52;;
51244;SDS011;37840;47.562;18.738;2023-02-28T03:32:25;11.30;;;8.15;;
51244;SDS011;37840;47.562;18.738;2023-02-28T03:35:06;9.57;;;7.70;;
51244;SDS011;37840;47.562;18.738;2023-02-28T03:37:35;11.20;;;9.00;;
51244;SDS011;37840;47.562;18.738;2023-02-28T03:40:11;10.77;;;8.70;;
51244;SDS011;37840;47.562;18.738;2023-02-28T03:42:43;11.73;;;8.23;;
51244;SDS011;37840;47.562;18.738;2023-02-28T03:45:14;12.85;;;9.30;;
51244;SDS011;37840;47.562;18.738;2023-02-28T03:47:53;11.23;;;8.23;;
51244;SDS011;37840;47.562;18.738;2023-02-28T03:50:27;10.80;;;8.30;;
51244;SDS011;37840;47.562;18.738;2023-02-28T03:53:04;10.80;;;9.00;;
51244;SDS011;37840;47.562;18.738;2023-02-28T03:55:45;11.38;;;9.48;;
51244;SDS011;37840;47.562;18.738;2023-02-28T04:03:45;10.80;;;8.68;;
51244;SDS011;37840;47.562;18.738;2023-02-28T04:06:15;14.05;;;10.13;;
51244;SDS011;37840;47.562;18.738;2023-02-28T04:08:43;13.02;;;9.65;;
51244;SDS011;37840;47.562;18.738;2023-02-28T04:11:23;12.20;;;9.05;;
51244;SDS011;37840;47.562;18.738;2023-02-28T04:13:55;11.43;;;9.23;;
51244;SDS011;37840;47.562;18.738;2023-02-28T04:16:21;11.77;;;9.07;;
51244;SDS011;37840;47.562;18.738;2023-02-28T04:18:47;13.10;;;9.07;;
51244;SDS011;37840;47.562;18.738;2023-02-28T04:21:13;15.82;;;9.65;;
51244;SDS011;37840;47.562;18.738;2023-02-28T04:23:39;13.48;;;9.52;;
51244;SDS011;37840;47.562;18.738;2023-02-28T04:26:05;11.10;;;8.93;;
51244;SDS011;37840;47.562;18.738;2023-02-28T04:28:31;12.57;;;9.13;;
51244;SDS011;37840;47.562;18.738;2023-02-28T04:31:02;12.90;;;8.68;;
51244;SDS011;37840;47.562;18.738;2023-02-28T04:33:30;13.88;;;8.93;;
51244;SDS011;37840;47.562;18.738;2023-02-28T04:36:07;11.95;;;8.20;;
51244;SDS011;37840;47.562;18.738;2023-02-28T04:38:35;12.02;;;7.87;;
51244;SDS011;37840;47.562;18.738;2023-02-28T04:41:02;11.63;;;8.43;;
51244;SDS011;37840;47.562;18.738;2023-02-28T04:43:29;12.25;;;8.00;;
51244;SDS011;37840;47.562;18.738;2023-02-28T04:45:56;11.45;;;7.93;;
51244;SDS011;37840;47.562;18.738;2023-02-28T04:48:23;10.70;;;7.95;;
51244;SDS011;37840;47.562;18.738;2023-02-28T04:50:50;11.50;;;7.75;;
51244;SDS011;37840;47.562;18.738;2023-02-28T04:53:17;10.85;;;7.57;;
51244;SDS011;37840;47.562;18.738;2023-02-28T04:55:43;11.85;;;7.47;;
51244;SDS011;37840;47.562;18.738;2023-02-28T04:58:09;8.40;;;6.75;;
51244;SDS011;37840;47.562;18.738;2023-02-28T05:00:35;9.30;;;7.18;;
51244;SDS011;37840;47.562;18.738;2023-02-28T05:03:01;11.05;;;8.40;;
51244;SDS011;37840;47.562;18.738;2023-02-28T05:05:27;12.50;;;9.52;;
51244;SDS011;37840;47.562;18.738;2023-02-28T05:07:53;13.40;;;9.88;;
51244;SDS011;37840;47.562;18.738;2023-02-28T05:10:21;11.02;;;8.15;;
51244;SDS011;37840;47.562;18.738;2023-02-28T05:12:48;9.82;;;8.25;;
51244;SDS011;37840;47.562;18.738;2023-02-28T05:15:14;16.02;;;9.20;;
51244;SDS011;37840;47.562;18.738;2023-02-28T05:17:42;16.73;;;9.55;;
51244;SDS011;37840;47.562;18.738;2023-02-28T05:20:09;15.35;;;9.73;;
51244;SDS011;37840;47.562;18.738;2023-02-28T05:22:39;15.52;;;8.85;;
51244;SDS011;37840;47.562;18.738;2023-02-28T05:25:06;11.07;;;8.40;;
51244;SDS011;37840;47.562;18.738;2023-02-28T05:27:36;14.48;;;7.90;;
51244;SDS011;37840;47.562;18.738;2023-02-28T05:30:02;11.10;;;7.37;;
51244;SDS011;37840;47.562;18.738;2023-02-28T05:32:29;10.23;;;7.45;;
51244;SDS011;37840;47.562;18.738;2023-02-28T05:34:55;8.63;;;6.50;;
51244;SDS011;37840;47.562;18.738;2023-02-28T05:37:21;9.63;;;6.18;;
51244;SDS011;37840;47.562;18.738;2023-02-28T05:39:47;9.52;;;6.85;;
51244;SDS011;37840;47.562;18.738;2023-02-28T05:42:13;7.62;;;6.53;;
51244;SDS011;37840;47.562;18.738;2023-02-28T05:44:39;9.60;;;6.60;;
51244;SDS011;37840;47.562;18.738;2023-02-28T05:47:05;7.90;;;6.50;;
51244;SDS011;37840;47.562;18.738;2023-02-28T05:49:31;8.82;;;7.03;;
51244;SDS011;37840;47.562;18.738;2023-02-28T05:51:57;9.10;;;7.05;;
51244;SDS011;37840;47.562;18.738;2023-02-28T05:54:23;9.48;;;7.70;;
51244;SDS011;37840;47.562;18.738;2023-02-28T05:56:49;8.88;;;6.65;;
51244;SDS011;37840;47.562;18.738;2023-02-28T05:59:15;8.55;;;6.78;;
51244;SDS011;37840;47.562;18.738;2023-02-28T06:01:42;8.93;;;7.15;;
51244;SDS011;37840;47.562;18.738;2023-02-28T06:04:17;9.50;;;6.90;;
51244;SDS011;37840;47.562;18.738;2023-02-28T06:06:45;9.07;;;6.70;;
51244;SDS011;37840;47.562;18.738;2023-02-28T06:09:14;7.75;;;6.93;;
51244;SDS011;37840;47.562;18.738;2023-02-28T06:11:41;7.20;;;6.47;;
51244;SDS011;37840;47.562;18.738;2023-02-28T06:14:07;7.50;;;6.25;;
51244;SDS011;37840;47.562;18.738;2023-02-28T06:16:39;8.02;;;6.47;;
51244;SDS011;37840;47.562;18.738;2023-02-28T06:19:05;6.32;;;5.43;;
51244;SDS011;37840;47.562;18.738;2023-02-28T06:21:31;9.88;;;7.37;;
51244;SDS011;37840;47.562;18.738;2023-02-28T06:23:58;11.55;;;8.05;;
51244;SDS011;37840;47.562;18.738;2023-02-28T06:26:24;9.50;;;6.75;;
51244;SDS011;37840;47.562;18.738;2023-02-28T06:28:51;8.02;;;5.72;;
51244;SDS011;37840;47.562;18.738;2023-02-28T06:31:17;7.05;;;5.40;;
51244;SDS011;37840;47.562;18.738;2023-02-28T06:33:44;8.18;;;5.87;;
51244;SDS011;37840;47.562;18.738;2023-02-28T06:36:11;6.00;;;5.32;;
51244;SDS011;37840;47.562;18.738;2023-02-28T06:38:38;9.93;;;6.50;;
51244;SDS011;37840;47.562;18.738;2023-02-28T06:41:06;9.13;;;5.97;;
51244;SDS011;37840;47.562;18.738;2023-02-28T06:43:36;8.98;;;6.93;;
51244;SDS011;37840;47.562;18.738;2023-02-28T06:46:05;9.07;;;6.43;;
51244;SDS011;37840;47.562;18.738;2023-02-28T06:48:33;10.35;;;6.62;;
51244;SDS011;37840;47.562;18.738;2023-02-28T06:53:29;17.45;;;8.90;;
51244;SDS011;37840;47.562;18.738;2023-02-28T06:55:55;17.75;;;9.13;;
51244;SDS011;37840;47.562;18.738;2023-02-28T06:58:20;11.23;;;7.03;;
51244;SDS011;37840;47.562;18.738;2023-02-28T07:00:49;6.60;;;5.12;;
51244;SDS011;37840;47.562;18.738;2023-02-28T07:03:17;6.55;;;5.12;;
51244;SDS011;37840;47.562;18.738;2023-02-28T07:05:44;6.62;;;5.15;;
51244;SDS011;37840;47.562;18.738;2023-02-28T07:08:10;5.93;;;4.80;;
51244;SDS011;37840;47.562;18.738;2023-02-28T07:10:37;6.57;;;5.05;;
51244;SDS011;37840;47.562;18.738;2023-02-28T07:13:04;5.87;;;4.97;;
51244;SDS011;37840;47.562;18.738;2023-02-28T07:15:31;6.90;;;5.05;;
51244;SDS011;37840;47.562;18.738;2023-02-28T07:17:57;6.20;;;4.75;;
51244;SDS011;37840;47.562;18.738;2023-02-28T07:20:23;7.95;;;5.53;;
51244;SDS011;37840;47.562;18.738;2023-02-28T07:23:08;7.20;;;5.68;;
51244;SDS011;37840;47.562;18.738;2023-02-28T07:25:33;6.35;;;4.80;;
51244;SDS011;37840;47.562;18.738;2023-02-28T07:27:59;5.87;;;4.80;;
51244;SDS011;37840;47.562;18.738;2023-02-28T07:30:25;5.68;;;4.87;;
51244;SDS011;37840;47.562;18.738;2023-02-28T07:32:51;5.03;;;4.18;;
51244;SDS011;37840;47.562;18.738;2023-02-28T07:35:17;6.75;;;4.93;;
51244;SDS011;37840;47.562;18.738;2023-02-28T07:37:44;6.90;;;5.00;;
51244;SDS011;37840;47.562;18.738;2023-02-28T07:40:10;6.72;;;5.35;;
51244;SDS011;37840;47.562;18.738;2023-02-28T07:42:37;6.97;;;5.15;;
51244;SDS011;37840;47.562;18.738;2023-02-28T07:45:04;5.93;;;4.72;;
51244;SDS011;37840;47.562;18.738;2023-02-28T07:47:31;8.98;;;4.85;;
51244;SDS011;37840;47.562;18.738;2023-02-28T07:49:57;6.82;;;4.55;;
51244;SDS011;37840;47.562;18.738;2023-02-28T07:52:23;7.62;;;5.82;;
51244;SDS011;37840;47.562;18.738;2023-02-28T07:54:50;6.22;;;4.97;;
51244;SDS011;37840;47.562;18.738;2023-02-28T07:57:16;7.15;;;4.45;;
51244;SDS011;37840;47.562;18.738;2023-02-28T07:59:42;6.35;;;4.85;;
51244;SDS011;37840;47.562;18.738;2023-02-28T08:02:17;5.78;;;4.40;;
51244;SDS011;37840;47.562;18.738;2023-02-28T08:04:44;5.78;;;4.12;;
51244;SDS011;37840;47.562;18.738;2023-02-28T08:07:12;5.15;;;4.05;;
51244;SDS011;37840;47.562;18.738;2023-02-28T08:09:39;5.47;;;3.87;;
51244;SDS011;37840;47.562;18.738;2023-02-28T08:12:05;4.80;;;3.70;;
51244;SDS011;37840;47.562;18.738;2023-02-28T08:14:33;4.95;;;4.15;;
51244;SDS011;37840;47.562;18.738;2023-02-28T08:16:59;4.90;;;4.03;;
51244;SDS011;37840;47.562;18.738;2023-02-28T08:19:25;6.60;;;4.32;;
51244;SDS011;37840;47.562;18.738;2023-02-28T08:21:50;5.40;;;4.45;;
51244;SDS011;37840;47.562;18.738;2023-02-28T10:47:40;7.37;;;5.68;;
51244;SDS011;37840;47.562;18.738;2023-02-28T10:50:42;8.18;;;6.12;;
